Time;durP1;ratioP1;P1;durP2;ratioP2;P2;SDS_P1;SDS_P2;PMS_P1;PMS_P2;Temp;Humidity;BMP_temperature;BMP_pressure;BME280_temperature;BME280_humidity;BME280_pressure;Samples;Min_cycle;Max_cycle;Signal;HPM_P1;HPM_P2
2022/12/27 00:00:14;;;;;;;27.58;12.07;;;;;;;3.92;73.85;94664.09;6166551;23;20311;-83
2022/12/27 00:02:39;;;;;;;29.70;10.73;;;;;;;3.92;73.65;94658.81;6166206;23;19999;-83
2022/12/27 00:05:07;;;;;;;27.00;10.60;;;;;;;3.92;73.99;94658.03;6165855;23;20002;-83
2022/12/27 00:07:33;;;;;;;24.85;11.20;;;;;;;3.87;73.86;94663.25;6165852;23;20009;-83
2022/12/27 00:09:59;;;;;;;26.38;10.45;;;;;;;3.77;74.06;94656.84;6166065;23;19997;-83
2022/12/27 00:12:24;;;;;;;25.20;11.05;;;;;;;3.84;74.07;94669.03;6166422;23;20063;-83
2022/12/27 00:14:49;;;;;;;25.33;11.25;;;;;;;3.82;74.08;94648.19;6166195;23;20224;-83
2022/12/27 00:17:15;;;;;;;23.25;11.20;;;;;;;3.75;74.34;94658.94;6166115;23;20005;-83
2022/12/27 00:19:41;;;;;;;23.23;11.52;;;;;;;3.81;74.24;94663.22;6166139;23;20200;-83
2022/12/27 00:22:06;;;;;;;24.27;10.85;;;;;;;3.81;74.26;94655.31;6166093;23;19997;-83
2022/12/27 00:24:31;;;;;;;20.95;10.18;;;;;;;3.82;74.51;94659.53;6166049;23;20318;-83
2022/12/27 00:26:57;;;;;;;24.05;10.82;;;;;;;3.84;74.38;94640.03;6140102;23;20001;-82
2022/12/27 00:29:22;;;;;;;29.08;11.52;;;;;;;3.87;74.22;94639.50;6165836;23;20008;-82
2022/12/27 00:31:48;;;;;;;24.10;11.57;;;;;;;3.86;74.17;94649.28;6165952;23;20235;-82
2022/12/27 00:34:13;;;;;;;24.15;11.73;;;;;;;3.82;74.43;94648.19;6165979;23;20381;-83
2022/12/27 00:36:39;;;;;;;27.20;12.07;;;;;;;3.86;74.35;94643.22;6165950;23;20017;-83
2022/12/27 00:39:04;;;;;;;24.35;12.30;;;;;;;3.81;74.53;94644.75;6166052;23;20335;-83
2022/12/27 00:41:30;;;;;;;26.90;12.05;;;;;;;3.85;74.09;94655.63;6165911;23;20049;-83
2022/12/27 00:43:56;;;;;;;27.23;12.88;;;;;;;3.84;74.19;94666.41;6165620;23;20299;-83
2022/12/27 00:46:21;;;;;;;27.17;12.07;;;;;;;3.83;74.38;94660.34;6166006;23;20001;-83
2022/12/27 00:48:47;;;;;;;28.63;12.20;;;;;;;3.86;73.95;94664.31;6165694;23;20052;-82
2022/12/27 00:51:15;;;;;;;26.50;11.63;;;;;;;3.85;74.50;94683.81;6166025;23;20350;-83
2022/12/27 00:53:42;;;;;;;25.65;11.00;;;;;;;3.82;74.57;94670.06;6165850;23;20025;-83
2022/12/27 00:56:14;;;;;;;21.77;11.70;;;;;;;3.84;74.65;94676.97;6165710;23;20057;-83
2022/12/27 00:58:39;;;;;;;29.63;12.70;;;;;;;3.85;74.91;94683.81;6165692;23;20017;-83
2022/12/27 01:01:11;;;;;;;23.60;11.80;;;;;;;3.78;74.69;94676.91;6165789;23;20322;-83
2022/12/27 01:03:37;;;;;;;27.38;11.70;;;;;;;3.79;74.69;94680.34;6165785;23;20017;-83
2022/12/27 01:06:07;;;;;;;20.02;10.52;;;;;;;3.77;73.74;94683.22;6165521;23;20366;-83
2022/12/27 01:08:33;;;;;;;17.52;9.90;;;;;;;3.74;73.94;94682.94;6165581;23;19997;-83
2022/12/27 01:10:59;;;;;;;23.58;10.40;;;;;;;3.69;73.90;94683.69;6165631;23;20315;-83
2022/12/27 01:13:24;;;;;;;20.25;9.80;;;;;;;3.69;74.15;94681.03;6165603;23;19999;-82
2022/12/27 01:15:50;;;;;;;19.27;9.45;;;;;;;3.69;73.99;94675.78;6165662;23;20029;-84
2022/12/27 01:18:15;;;;;;;22.25;10.23;;;;;;;3.65;73.94;94679.94;6165485;23;20048;-83
2022/12/27 01:20:41;;;;;;;23.30;11.15;;;;;;;3.63;73.76;94676.78;6165350;23;20002;-81
2022/12/27 01:23:06;;;;;;;30.92;11.60;;;;;;;3.56;73.80;94671.69;6165606;23;20048;-83
2022/12/27 01:25:32;;;;;;;25.35;10.70;;;;;;;3.56;74.03;94670.88;6165365;23;20053;-83
2022/12/27 01:27:57;;;;;;;26.23;12.07;;;;;;;3.51;74.06;94674.28;6165614;23;20001;-82
2022/12/27 01:30:23;;;;;;;31.23;12.95;;;;;;;3.51;74.02;94674.28;6165682;23;20314;-83
2022/12/27 01:32:48;;;;;;;28.75;11.98;;;;;;;3.51;74.11;94660.31;6165540;23;20048;-83
2022/12/27 01:35:14;;;;;;;35.35;13.23;;;;;;;3.48;74.23;94668.69;6165311;23;19997;-83
2022/12/27 01:37:39;;;;;;;25.50;13.82;;;;;;;3.45;73.85;94656.03;6165390;23;20005;-83
2022/12/27 01:40:05;;;;;;;24.73;12.43;;;;;;;3.40;74.14;94647.03;6165228;23;19998;-82
2022/12/27 01:45:17;;;;;;;26.98;12.65;;;;;;;3.33;74.82;94661.44;6165311;23;20237;-83
2022/12/27 01:47:54;;;;;;;27.35;11.48;;;;;;;3.32;75.00;94654.59;6139179;23;20008;-83
2022/12/27 01:50:28;;;;;;;30.00;13.05;;;;;;;3.29;75.20;94670.88;6165666;23;19997;-83
2022/12/27 01:53:08;;;;;;;21.90;11.60;;;;;;;3.31;75.61;94656.41;6165583;23;20231;-82
2022/12/27 01:55:45;;;;;;;27.95;12.82;;;;;;;3.31;75.87;94648.50;6165236;23;20295;-83
2022/12/27 01:58:35;;;;;;;24.67;12.05;;;;;;;3.31;75.93;94652.97;6165269;23;20001;-83
2022/12/27 02:01:02;;;;;;;28.75;13.52;;;;;;;3.31;75.93;94651.13;6165319;23;20029;-83
2022/12/27 02:03:31;;;;;;;29.30;12.85;;;;;;;3.33;75.86;94656.97;6165041;23;20005;-83
2022/12/27 02:06:00;;;;;;;24.83;12.00;;;;;;;3.33;75.94;94637.72;6164843;23;20335;-82
2022/12/27 02:08:29;;;;;;;25.95;11.32;;;;;;;3.37;75.81;94647.50;6165168;23;20009;-83
2022/12/27 02:10:56;;;;;;;31.52;12.10;;;;;;;3.35;75.91;94654.06;6165018;23;20295;-82
2022/12/27 02:13:22;;;;;;;28.25;12.60;;;;;;;3.34;75.77;94669.09;6165120;23;20005;-83
2022/12/27 02:15:47;;;;;;;29.00;11.20;;;;;;;3.34;75.52;94653.28;6165190;23;20064;-83
2022/12/27 02:18:13;;;;;;;21.05;11.07;;;;;;;3.34;75.73;94655.94;6165089;23;20005;-83
2022/12/27 02:20:56;;;;;;;23.67;11.52;;;;;;;3.40;75.54;94654.16;6165024;23;19997;-83
2022/12/27 02:26:41;;;;;;;21.98;10.35;;;;;;;3.39;75.41;94649.91;6164826;23;20023;-83
2022/12/27 02:29:31;;;;;;;20.77;9.93;;;;;;;3.37;75.35;94647.50;6158347;23;20028;-83
2022/12/27 02:32:13;;;;;;;20.17;9.32;;;;;;;3.39;75.17;94668.34;6165260;23;20005;-83
2022/12/27 02:35:02;;;;;;;27.75;10.60;;;;;;;3.34;75.22;94657.78;6164939;23;19997;-83
2022/12/27 02:37:31;;;;;;;29.20;10.73;;;;;;;3.31;75.48;94659.03;6165061;23;20005;-83
2022/12/27 02:53:02;;;;;;;25.60;11.23;;;;;;;3.32;75.47;94658.00;6164971;23;20161;-83
2022/12/27 02:54:33;;;;;;;22.17;10.70;;;;;;;3.27;75.53;94663.22;6165050;23;20016;-83
2022/12/27 02:57:13;;;;;;;23.67;9.70;;;;;;;3.26;75.43;94634.47;6164567;23;20176;-82
2022/12/27 03:03:25;;;;;;;20.05;10.15;;;;;;;3.19;76.06;94642.56;6147242;23;20016;-83
2022/12/27 03:08:59;;;;;;;23.05;10.25;;;;;;;3.13;76.21;94646.19;6164836;23;20009;-83
2022/12/27 03:17:23;;;;;;;21.08;10.55;;;;;;;3.09;76.29;94661.69;6164775;23;20013;-83
2022/12/27 03:25:31;;;;;;;24.17;8.70;;;;;;;2.96;76.40;94654.97;6164487;23;19928;-83
2022/12/27 03:33:49;;;;;;;20.00;9.23;;;;;;;3.05;76.85;94657.16;6162958;23;20093;-83
2022/12/27 03:39:26;;;;;;;19.10;8.57;;;;;;;3.01;76.56;94670.84;6164539;23;20243;-83
2022/12/27 03:44:41;;;;;;;15.10;8.50;;;;;;;3.01;76.97;94672.66;6166413;23;20013;-83
2022/12/27 03:47:20;;;;;;;20.00;8.20;;;;;;;3.06;76.76;94664.03;6166425;23;20002;-83
2022/12/27 03:49:52;;;;;;;19.65;8.35;;;;;;;3.00;76.63;94669.25;6166348;23;20008;-83
2022/12/27 03:52:31;;;;;;;21.48;9.18;;;;;;;3.01;76.71;94660.31;6166349;23;20013;-83
2022/12/27 03:54:57;;;;;;;15.35;8.27;;;;;;;2.98;76.85;94660.78;6166348;23;19993;-83
2022/12/27 03:57:26;;;;;;;21.05;9.70;;;;;;;2.99;77.24;94659.75;6165688;23;20017;-83
2022/12/27 03:59:52;;;;;;;20.33;9.18;;;;;;;3.02;77.23;94661.09;6166463;23;19997;-83
2022/12/27 04:02:21;;;;;;;29.85;10.18;;;;;;;3.05;77.31;94660.59;6166443;23;20009;-83
2022/12/27 04:04:47;;;;;;;22.90;10.80;;;;;;;3.10;77.04;94667.78;6166281;23;19997;-83
2022/12/27 04:07:14;;;;;;;19.45;10.38;;;;;;;3.13;76.95;94672.53;6140069;23;20040;-83
2022/12/27 04:37:02;;;;;;;21.83;8.27;;;;;;;3.09;76.50;94681.97;6165922;23;20057;-83
2022/12/27 04:39:27;;;;;;;21.55;9.15;;;;;;;3.11;76.74;94687.78;6165899;23;20258;-83
2022/12/27 04:55:57;;;;;;;;;;;;;;;3.03;76.39;94714.56;6166349;23;20062;-83
2022/12/27 04:58:23;;;;;;;19.20;7.57;;;;;;;2.98;76.78;94717.94;6165990;23;20191;-83
2022/12/27 05:03:33;;;;;;;21.05;9.38;;;;;;;2.98;76.78;94718.72;6165859;23;20035;-83
2022/12/27 05:05:59;;;;;;;20.65;10.63;;;;;;;3.01;77.22;94720.88;6165461;23;20001;-83
2022/12/27 05:13:59;;;;;;;26.80;10.13;;;;;;;2.93;77.02;94700.25;6165783;23;20004;-83
2022/12/27 05:16:29;;;;;;;28.83;11.80;;;;;;;2.95;77.01;94687.63;6165283;23;20002;-82
2022/12/27 05:18:54;;;;;;;30.58;11.88;;;;;;;2.95;76.67;94676.28;6165622;23;20005;-82
2022/12/27 05:21:20;;;;;;;34.47;14.73;;;;;;;2.91;76.72;94676.00;6165769;23;20053;-83
2022/12/27 05:26:31;;;;;;;45.58;17.92;;;;;;;2.95;77.14;94666.56;6165527;23;20355;-83
2022/12/27 05:28:58;;;;;;;39.40;17.77;;;;;;;2.98;77.04;94665.25;6165336;23;19997;-82
2022/12/27 05:31:25;;;;;;;42.58;16.17;;;;;;;3.01;76.91;94668.22;6165580;23;20009;-83
2022/12/27 05:33:51;;;;;;;36.75;15.52;;;;;;;2.97;76.97;94646.03;6165591;23;20012;-83
2022/12/27 05:36:17;;;;;;;37.88;15.60;;;;;;;2.99;76.97;94659.75;6165530;23;20420;-83
2022/12/27 05:38:42;;;;;;;34.03;14.90;;;;;;;2.97;77.19;94655.75;6165345;23;20001;-83
2022/12/27 05:41:08;;;;;;;35.25;14.38;;;;;;;2.98;78.06;94654.72;6165322;23;20001;-83
2022/12/27 05:43:34;;;;;;;27.70;12.65;;;;;;;3.07;77.30;94647.19;6165231;23;19997;-82
2022/12/27 05:46:14;;;;;;;31.30;13.20;;;;;;;3.05;77.28;94636.88;6165372;23;20149;-82
2022/12/27 05:48:40;;;;;;;29.65;13.50;;;;;;;3.06;77.06;94649.03;6165332;23;20239;-83
2022/12/27 05:51:17;;;;;;;25.08;10.93;;;;;;;3.03;76.73;94661.88;6165234;23;19997;-83
2022/12/27 05:53:43;;;;;;;23.52;10.65;;;;;;;3.07;77.70;94663.78;6165299;23;20001;-83
2022/12/27 05:56:14;;;;;;;24.17;10.45;;;;;;;3.06;77.65;94680.63;6165147;23;20004;-83
2022/12/27 05:58:40;;;;;;;21.27;9.63;;;;;;;3.00;78.41;94673.72;6164979;23;20319;-83
2022/12/27 06:01:14;;;;;;;19.63;9.57;;;;;;;3.09;78.17;94695.16;6165116;23;20016;-83
2022/12/27 06:03:40;;;;;;;18.05;7.45;;;;;;;3.08;77.28;94697.00;6164911;23;20272;-83
2022/12/27 06:06:06;;;;;;;19.70;8.27;;;;;;;3.02;77.83;94708.50;6165081;23;20049;-83
2022/12/27 06:08:32;;;;;;;21.80;8.90;;;;;;;2.94;78.13;94715.00;6164881;23;20028;-83
2022/12/27 06:11:12;;;;;;;17.17;8.30;;;;;;;2.91;78.31;94710.22;6165172;23;20040;-83
2022/12/27 06:13:39;;;;;;;23.40;10.07;;;;;;;2.94;78.03;94717.63;6164908;23;20240;-82
2022/12/27 06:16:06;;;;;;;25.75;12.43;;;;;;;2.89;76.88;94695.69;6165268;23;20060;-83
2022/12/27 06:18:34;;;;;;;34.50;13.05;;;;;;;2.81;77.16;94702.19;6165005;23;20040;-83
2022/12/27 06:21:09;;;;;;;29.02;12.15;;;;;;;2.82;77.48;94701.13;6164896;23;20017;-83
2022/12/27 06:23:36;;;;;;;19.25;10.60;;;;;;;2.82;77.46;94703.78;6165118;23;20342;-83
2022/12/27 06:26:14;;;;;;;18.90;9.40;;;;;;;2.84;77.55;94701.69;6164769;23;19993;-83
2022/12/27 06:28:40;;;;;;;30.25;11.55;;;;;;;2.89;77.68;94693.88;6164992;23;20002;-83
2022/12/27 06:31:05;;;;;;;23.33;10.35;;;;;;;2.93;77.72;94697.59;6164728;23;20007;-82
2022/12/27 06:33:31;;;;;;;25.35;11.55;;;;;;;2.89;77.06;94698.31;6165060;23;20036;-83
2022/12/27 06:35:56;;;;;;;26.83;13.35;;;;;;;2.85;76.77;94713.00;6164982;23;20045;-83
2022/12/27 06:38:22;;;;;;;29.95;13.45;;;;;;;2.83;76.48;94708.00;6165186;23;20001;-83
2022/12/27 06:40:48;;;;;;;31.67;14.05;;;;;;;2.81;77.06;94720.63;6164713;23;20002;-83
2022/12/27 06:43:13;;;;;;;20.52;11.93;;;;;;;2.80;77.49;94711.13;6164922;23;20009;-83
2022/12/27 06:45:39;;;;;;;22.17;11.90;;;;;;;2.78;77.73;94718.47;6164606;23;20004;-83
2022/12/27 06:48:05;;;;;;;39.80;18.67;;;;;;;2.87;77.64;94714.38;6164832;23;20195;-83
2022/12/27 06:50:30;;;;;;;46.90;25.20;;;;;;;2.96;77.65;94717.38;6164969;23;20044;-83
2022/12/27 06:52:56;;;;;;;35.20;17.70;;;;;;;3.01;77.66;94710.34;6164658;23;20002;-82
2022/12/27 06:55:22;;;;;;;32.80;18.17;;;;;;;3.10;77.57;94699.38;6164825;23;19993;-83
2022/12/27 06:57:48;;;;;;;29.08;14.95;;;;;;;3.18;77.36;94693.69;6164898;23;20001;-83
2022/12/27 07:00:14;;;;;;;29.33;15.55;;;;;;;3.27;77.69;94702.75;6164797;23;19997;-83
2022/12/27 07:02:40;;;;;;;29.73;15.13;;;;;;;3.42;77.68;94691.59;6164785;23;19998;-83
2022/12/27 07:05:07;;;;;;;27.33;13.68;;;;;;;3.54;77.59;94694.06;6164580;23;19997;-83
2022/12/27 07:07:32;;;;;;;30.15;13.15;;;;;;;3.60;77.07;94699.16;6164415;23;20056;-83
2022/12/27 07:09:58;;;;;;;33.92;15.43;;;;;;;3.66;76.61;94694.72;6164725;23;19998;-83
2022/12/27 07:12:24;;;;;;;28.75;15.88;;;;;;;3.74;76.50;94704.03;6164951;23;20196;-83
2022/12/27 07:14:49;;;;;;;35.05;18.15;;;;;;;3.81;76.08;94696.72;6165709;23;19997;-83
2022/12/27 07:17:15;;;;;;;38.10;18.73;;;;;;;3.84;76.06;94703.31;6166694;23;20049;-83
2022/12/27 07:19:40;;;;;;;28.35;15.27;;;;;;;3.86;76.12;94688.06;6166819;23;20016;-83
2022/12/27 07:22:05;;;;;;;32.63;16.00;;;;;;;3.95;76.15;94686.56;6166609;23;20049;-83
2022/12/27 07:24:32;;;;;;;41.88;21.02;;;;;;;4.02;76.34;94687.91;6166497;23;20295;-83
2022/12/27 07:26:58;;;;;;;47.42;24.20;;;;;;;4.18;76.34;94688.06;6166540;23;20007;-82
2022/12/27 07:29:25;;;;;;;41.88;21.10;;;;;;;4.31;75.77;94678.91;6166681;23;20295;-83
2022/12/27 07:31:50;;;;;;;45.88;22.55;;;;;;;4.42;75.91;94680.59;6166849;23;20072;-83
2022/12/27 07:34:16;;;;;;;45.15;23.08;;;;;;;4.52;75.72;94682.47;6166441;23;20009;-83
2022/12/27 07:36:42;;;;;;;39.67;20.60;;;;;;;4.60;75.38;94684.66;6166705;23;20005;-83
2022/12/27 07:39:07;;;;;;;36.15;17.60;;;;;;;4.67;74.96;94685.22;6166507;23;20224;-83
2022/12/27 07:41:33;;;;;;;35.47;16.83;;;;;;;4.67;72.98;94689.72;6166473;23;20101;-83
2022/12/27 07:43:59;;;;;;;40.47;16.92;;;;;;;4.57;73.27;94696.50;6166405;23;19997;-83
2022/12/27 07:46:25;;;;;;;31.65;17.33;;;;;;;4.48;72.60;94695.41;6166362;23;19998;-83
2022/12/27 07:48:55;;;;;;;30.60;15.82;;;;;;;4.34;73.08;94689.75;6166641;23;19997;-83
2022/12/27 07:51:22;;;;;;;32.35;14.98;;;;;;;4.24;73.30;94673.06;6166728;23;20060;-83
2022/12/27 07:53:48;;;;;;;33.17;15.25;;;;;;;4.21;74.06;94675.16;6166417;23;19997;-83
2022/12/27 07:56:19;;;;;;;31.10;17.20;;;;;;;4.23;74.36;94685.44;6166503;23;20002;-83
2022/12/27 07:58:47;;;;;;;38.13;16.13;;;;;;;4.26;74.46;94669.13;6166131;23;20001;-83
2022/12/27 08:01:14;;;;;;;34.70;17.40;;;;;;;4.29;74.63;94687.06;6140348;23;20009;-83
2022/12/27 08:03:40;;;;;;;66.38;26.13;;;;;;;4.36;74.63;94676.31;6166186;23;20191;-82
2022/12/27 08:06:07;;;;;;;48.03;24.33;;;;;;;4.43;74.67;94687.44;6166126;23;20009;-82
2022/12/27 08:08:39;;;;;;;53.08;25.92;;;;;;;4.51;74.44;94700.16;6166303;23;19998;-83
2022/12/27 08:11:05;;;;;;;47.20;23.25;;;;;;;4.56;74.30;94705.50;6166184;23;20002;-83
2022/12/27 08:13:31;;;;;;;47.97;23.48;;;;;;;4.66;73.72;94717.16;6166167;23;20044;-83
2022/12/27 08:15:56;;;;;;;48.85;23.33;;;;;;;4.71;73.50;94719.84;6140129;23;20005;-83
2022/12/27 08:18:22;;;;;;;44.67;22.90;;;;;;;4.78;73.30;94713.28;6166213;23;20310;-83
2022/12/27 08:20:47;;;;;;;56.22;25.42;;;;;;;4.83;73.48;94708.03;6166077;23;20001;-83
2022/12/27 08:23:13;;;;;;;50.10;24.10;;;;;;;4.90;73.28;94707.78;6166077;23;20019;-83
2022/12/27 08:25:38;;;;;;;45.10;23.40;;;;;;;4.99;73.42;94705.47;6165885;23;20227;-83
2022/12/27 08:28:06;;;;;;;44.97;21.42;;;;;;;5.08;73.22;94711.06;6165885;23;20009;-83
2022/12/27 08:30:31;;;;;;;40.42;20.85;;;;;;;5.19;72.81;94697.63;6166023;23;20073;-83
2022/12/27 08:32:59;;;;;;;39.72;20.38;;;;;;;5.28;72.84;94691.84;6165956;23;20235;-83
2022/12/27 08:35:24;;;;;;;36.97;19.60;;;;;;;5.37;72.56;94701.69;6166058;23;20040;-83
2022/12/27 08:37:50;;;;;;;42.90;19.70;;;;;;;5.46;72.41;94701.16;6166151;23;20001;-83
2022/12/27 08:40:15;;;;;;;37.17;18.30;;;;;;;5.40;72.19;94703.78;6165986;23;20001;-83
2022/12/27 08:42:41;;;;;;;42.83;18.77;;;;;;;5.49;72.49;94703.28;6165843;23;20100;-83
2022/12/27 08:45:07;;;;;;;40.70;18.20;;;;;;;5.66;72.01;94705.69;6165654;23;19993;-83
2022/12/27 08:47:32;;;;;;;36.53;16.80;;;;;;;5.73;71.48;94683.25;6165979;23;20204;-83
2022/12/27 08:49:57;;;;;;;34.38;17.13;;;;;;;5.86;70.95;94695.16;6165880;23;20061;-83
2022/12/27 08:52:23;;;;;;;39.47;19.52;;;;;;;5.97;70.86;94690.72;6166008;23;20002;-83
2022/12/27 08:54:48;;;;;;;43.95;18.80;;;;;;;6.06;70.57;94681.19;6165685;23;19993;-83
2022/12/27 08:57:14;;;;;;;36.35;17.58;;;;;;;6.17;70.49;94679.34;6165744;23;20100;-83
2022/12/27 08:59:39;;;;;;;40.53;18.35;;;;;;;6.26;70.52;94698.94;6165742;23;19997;-83
2022/12/27 09:02:05;;;;;;;32.00;16.27;;;;;;;6.31;69.88;94690.19;6165580;23;20001;-82
2022/12/27 09:04:30;;;;;;;70.75;24.98;;;;;;;6.40;70.22;94676.16;6165447;23;20024;-82
2022/12/27 09:06:55;;;;;;;79.05;23.67;;;;;;;6.50;69.86;94685.94;6165491;23;20013;-82
2022/12/27 09:09:21;;;;;;;46.30;18.75;;;;;;;6.55;69.33;94672.69;6139594;23;20188;-82
2022/12/27 09:11:47;;;;;;;38.38;16.23;;;;;;;6.67;68.73;94676.91;6165728;23;20004;-82
2022/12/27 09:14:12;;;;;;;54.15;18.60;;;;;;;6.70;68.71;94682.47;6165606;23;20017;-82
2022/12/27 09:16:38;;;;;;;41.67;16.35;;;;;;;6.74;68.73;94677.44;6139512;23;20319;-82
2022/12/27 09:19:03;;;;;;;43.38;16.33;;;;;;;6.83;68.80;94668.66;6165597;23;20013;-82
2022/12/27 09:21:31;;;;;;;36.20;15.65;;;;;;;6.94;68.58;94664.16;6165810;23;20307;-83
2022/12/27 09:23:57;;;;;;;39.75;15.38;;;;;;;7.06;67.78;94661.16;6165473;23;20005;-83
2022/12/27 09:26:25;;;;;;;31.65;15.07;;;;;;;7.19;67.30;94646.56;6165510;23;20207;-82
2022/12/27 09:28:51;;;;;;;30.58;12.45;;;;;;;7.32;65.92;94647.81;6165477;23;19997;-83
2022/12/27 09:31:18;;;;;;;33.42;13.38;;;;;;;7.42;65.83;94655.72;6165315;23;20001;-82
2022/12/27 09:33:43;;;;;;;34.60;12.80;;;;;;;7.50;65.68;94633.13;6139374;23;20039;-82
2022/12/27 09:36:12;;;;;;;20.17;8.48;;;;;;;7.61;64.43;94629.34;6165494;23;20291;-82
2022/12/27 09:38:38;;;;;;;31.77;9.43;;;;;;;7.66;64.55;94639.94;6165123;23;20001;-82
2022/12/27 09:41:11;;;;;;;20.05;8.30;;;;;;;7.78;64.27;94642.25;6165328;23;20004;-83
2022/12/27 09:43:47;;;;;;;25.95;12.15;;;;;;;7.89;63.89;94627.81;6165388;23;20246;-82
2022/12/27 09:46:22;;;;;;;35.50;14.77;;;;;;;7.98;64.53;94633.34;6165137;23;20326;-79
2022/12/27 09:48:49;;;;;;;32.95;13.50;;;;;;;8.06;64.33;94640.72;6165352;23;20053;-82
2022/12/27 09:51:27;;;;;;;29.88;14.05;;;;;;;8.13;64.12;94635.09;6165222;23;20373;-82
2022/12/27 09:54:09;;;;;;;31.42;15.32;;;;;;;8.26;63.64;94631.00;6165375;23;20005;-83
2022/12/27 09:56:35;;;;;;;17.73;8.18;;;;;;;8.16;62.52;94627.38;6165106;23;20007;-81
2022/12/27 09:59:14;;;;;;;14.68;8.10;;;;;;;8.30;61.99;94632.03;6164929;23;20006;-82
2022/12/27 10:01:39;;;;;;;22.25;9.23;;;;;;;8.41;61.78;94622.94;6165028;23;20056;-83
2022/12/27 10:04:11;;;;;;;21.98;11.07;;;;;;;8.50;61.63;94629.19;6164891;23;20002;-82
2022/12/27 10:06:37;;;;;;;;;;;;;;;8.58;60.98;94617.19;6165371;23;20006;-82
2022/12/27 10:09:38;;;;;;;21.17;10.32;;;;;;;8.61;61.09;94627.25;6164972;23;20130;-82
2022/12/27 10:12:37;;;;;;;29.15;11.35;;;;;;;8.72;60.83;94610.13;6018120;23;20066;-82
2022/12/27 10:15:23;;;;;;;25.80;11.15;;;;;;;8.80;60.68;94614.81;6165316;23;20001;-82
2022/12/27 10:18:26;;;;;;;18.75;9.45;;;;;;;8.80;59.76;94592.75;6165097;23;20010;-83
2022/12/27 10:21:15;;;;;;;27.55;10.65;;;;;;;8.91;60.00;94585.44;6165241;23;19993;-83
2022/12/27 10:23:46;;;;;;;24.20;10.85;;;;;;;8.95;59.69;94584.59;6164532;23;19998;-83
2022/12/27 10:26:16;;;;;;;24.58;10.80;;;;;;;8.96;59.64;94583.53;6164924;23;19993;-83
2022/12/27 10:28:45;;;;;;;21.70;11.30;;;;;;;9.05;59.10;94589.00;6164999;23;20047;-82
2022/12/27 10:31:21;;;;;;;20.73;11.13;;;;;;;9.15;59.15;94572.91;6164895;23;19997;-83
2022/12/27 10:33:48;;;;;;;24.38;11.00;;;;;;;9.21;59.03;94574.44;6164796;23;20315;-83
2022/12/27 10:36:25;;;;;;;24.63;12.13;;;;;;;9.33;58.29;94587.31;6164812;23;20068;-83
2022/12/27 10:38:51;;;;;;;24.65;12.45;;;;;;;9.43;57.66;94600.47;6164725;23;20085;-83
2022/12/27 10:41:35;;;;;;;27.40;12.35;;;;;;;9.40;57.79;94598.41;6164860;23;20001;-83
2022/12/27 10:44:00;;;;;;;33.15;11.90;;;;;;;9.42;57.85;94606.88;6164782;23;19997;-83
2022/12/27 10:46:31;;;;;;;30.60;11.75;;;;;;;9.52;57.62;94595.28;6164747;23;20062;-84
2022/12/27 10:49:02;;;;;;;30.67;12.18;;;;;;;9.62;57.45;94600.47;6164530;23;20001;-84
2022/12/27 10:51:39;;;;;;;21.15;12.07;;;;;;;9.68;57.09;94593.19;6164699;23;20006;-84
2022/12/27 10:54:19;;;;;;;33.67;13.63;;;;;;;9.77;56.41;94594.16;6164757;23;20081;-83
2022/12/27 10:56:46;;;;;;;31.40;14.20;;;;;;;9.84;56.54;94594.56;6164694;23;20047;-83
2022/12/27 10:59:11;;;;;;;31.10;15.10;;;;;;;9.83;57.00;94597.50;6164584;23;20068;-84
2022/12/27 11:01:37;;;;;;;39.05;15.48;;;;;;;9.86;57.02;94593.50;6164395;23;20005;-83
2022/12/27 11:04:13;;;;;;;30.73;14.13;;;;;;;9.97;56.72;94601.03;6164577;23;20000;-84
2022/12/27 11:06:40;;;;;;;33.70;15.43;;;;;;;10.05;56.25;94602.22;6164673;23;20060;-83
2022/12/27 11:09:33;;;;;;;42.90;18.95;;;;;;;10.19;56.22;94578.28;6138649;23;20009;-83
2022/12/27 11:12:12;;;;;;;;;;;;;;;10.32;56.13;94580.25;6148391;23;20048;-83
2022/12/27 11:14:37;;;;;;;31.15;14.35;;;;;;;10.39;55.52;94574.53;6164703;23;19896;-84
2022/12/27 11:17:09;;;;;;;30.58;14.43;;;;;;;10.49;55.03;94571.66;6164647;23;20004;-84
2022/12/27 11:19:38;;;;;;;22.75;12.48;;;;;;;10.57;55.28;94563.00;6164690;23;20005;-84
2022/12/27 11:22:06;;;;;;;24.60;11.60;;;;;;;10.68;55.21;94578.78;6138596;23;20003;-84
2022/12/27 11:24:31;;;;;;;24.60;12.20;;;;;;;10.78;54.77;94562.59;6164533;23;20048;-84
2022/12/27 11:26:58;;;;;;;30.10;12.40;;;;;;;10.91;54.47;94556.50;6164612;23;20295;-83
2022/12/27 11:29:29;;;;;;;28.05;14.23;;;;;;;10.92;53.91;94563.38;6164865;23;20013;-82
2022/12/27 11:31:56;;;;;;;29.67;14.53;;;;;;;11.01;53.67;94561.63;6164672;23;19997;-83
2022/12/27 11:34:31;;;;;;;27.38;16.08;;;;;;;11.11;52.82;94562.47;6164698;23;20040;-83
2022/12/27 11:37:13;;;;;;;38.17;20.15;;;;;;;11.16;52.76;94570.38;6164696;23;20020;-83
2022/12/27 11:39:43;;;;;;;37.20;17.33;;;;;;;11.05;52.71;94577.78;6164702;23;20052;-83
2022/12/27 11:42:32;;;;;;;34.17;18.17;;;;;;;11.15;52.74;94580.25;6164567;23;20064;-83
2022/12/27 11:45:09;;;;;;;43.63;20.98;;;;;;;11.21;52.57;94586.28;6164305;23;20065;-83
2022/12/27 11:47:57;;;;;;;47.95;21.45;;;;;;;11.26;52.45;94580.84;6164457;23;20716;-83
2022/12/27 11:50:25;;;;;;;39.72;18.77;;;;;;;11.55;51.97;94585.81;6164557;23;20013;-83
2022/12/27 11:53:28;;;;;;;45.50;18.73;;;;;;;11.77;51.22;94579.72;6164241;23;20002;-83
2022/12/27 11:56:00;;;;;;;39.17;18.27;;;;;;;11.92;50.38;94583.16;6164815;23;20035;-83
2022/12/27 11:58:45;;;;;;;38.15;19.85;;;;;;;12.01;50.78;94584.81;6164591;23;20008;-82
2022/12/27 12:01:26;;;;;;;35.38;17.42;;;;;;;12.08;50.89;94583.59;6165522;23;20001;-83
2022/12/27 12:04:02;;;;;;;31.42;17.02;;;;;;;12.11;50.46;94575.75;6166253;23;20013;-83
2022/12/27 12:06:53;;;;;;;33.47;16.30;;;;;;;12.14;50.53;94579.69;6166106;23;20032;-83
2022/12/27 12:09:28;;;;;;;31.80;15.70;;;;;;;12.15;50.63;94590.09;6166166;23;20005;-83
2022/12/27 12:12:08;;;;;;;27.92;13.77;;;;;;;12.18;50.21;94586.78;6166272;23;20001;-83
2022/12/27 12:14:57;;;;;;;29.17;14.93;;;;;;;12.15;50.58;94582.06;6165882;23;20001;-82
2022/12/27 12:17:50;;;;;;;31.48;15.70;;;;;;;12.14;50.62;94580.47;6166217;23;20005;-83
2022/12/27 12:20:32;;;;;;;30.58;15.05;;;;;;;12.10;50.50;94587.53;6165911;23;20056;-82
2022/12/27 12:23:04;;;;;;;24.40;12.68;;;;;;;12.00;51.39;94577.09;6166153;23;20243;-83
2022/12/27 12:26:03;;;;;;;33.35;15.68;;;;;;;11.92;50.96;94577.81;6165822;23;20340;-83
2022/12/27 12:28:37;;;;;;;36.63;17.63;;;;;;;11.75;51.30;94575.78;6166067;23;20001;-83
2022/12/27 12:32:07;;;;;;;38.15;18.05;;;;;;;11.55;52.23;94580.47;6166024;23;19997;-83
2022/12/27 12:34:53;;;;;;;32.97;17.83;;;;;;;11.47;53.21;94583.84;6040591;23;20291;-83
2022/12/27 12:37:37;;;;;;;36.20;18.80;;;;;;;11.44;53.85;94584.47;6165755;23;19997;-81
2022/12/27 12:40:11;;;;;;;31.55;17.60;;;;;;;11.34;54.89;94585.47;6166033;23;20273;-83
2022/12/27 12:43:06;;;;;;;30.42;14.35;;;;;;;11.27;55.66;94587.75;6165716;23;20211;-83
2022/12/27 12:46:09;;;;;;;22.25;11.98;;;;;;;11.31;56.12;94591.41;6165755;23;20048;-83
2022/12/27 12:49:09;;;;;;;22.35;9.75;;;;;;;11.36;56.39;94596.66;6165679;23;20173;-83
2022/12/27 12:51:35;;;;;;;14.35;6.80;;;;;;;11.43;55.72;94598.91;6097768;23;20028;-83
2022/12/27 12:54:06;;;;;;;14.27;5.60;;;;;;;11.48;56.12;94598.81;6165847;23;20304;-83
2022/12/27 12:56:47;;;;;;;11.38;5.05;;;;;;;11.54;55.96;94596.78;6165548;23;20009;-83
2022/12/27 12:59:37;;;;;;;10.30;5.25;;;;;;;11.64;55.70;94605.38;6165542;23;20002;-83
2022/12/27 13:02:17;;;;;;;10.02;4.53;;;;;;;11.72;55.58;94600.41;6165678;23;20009;-83
2022/12/27 13:05:03;;;;;;;9.38;4.50;;;;;;;11.76;55.07;94604.84;6165726;23;20006;-83
2022/12/27 13:07:41;;;;;;;8.98;4.18;;;;;;;11.87;54.85;94610.75;6165327;23;20006;-83
2022/12/27 13:10:41;;;;;;;15.82;5.30;;;;;;;11.96;54.96;94611.63;6165632;23;20056;-84
2022/12/27 13:13:45;;;;;;;13.00;4.50;;;;;;;11.95;54.94;94610.06;6087539;23;20207;-83
2022/12/27 13:16:22;;;;;;;13.27;3.30;;;;;;;11.79;55.24;94638.19;6165518;23;20020;-82
2022/12/27 13:18:56;;;;;;;20.08;3.40;;;;;;;11.68;55.83;94634.91;6165516;23;20012;-83
2022/12/27 13:21:37;;;;;;;11.75;3.42;;;;;;;11.57;56.26;94642.38;6165622;23;20299;-83
2022/12/27 13:24:09;;;;;;;10.15;3.33;;;;;;;11.56;56.89;94632.78;6165298;23;20057;-83